Time;durP1;ratioP1;P1;durP2;ratioP2;P2;SDS_P1;SDS_P2;PMS_P1;PMS_P2;Temp;Humidity;BMP_temperature;BMP_pressure;BME280_temperature;BME280_humidity;BME280_pressure;Samples;Min_cycle;Max_cycle;Signal;HPM_P1;HPM_P2
2021/10/25 00:00:44;;;;;;;11.02;4.78;;;;;;;;;;4981696;28;20061;-62
2021/10/25 00:03:10;;;;;;;11.27;4.68;;;;;;;;;;4968238;28;20058;-62
2021/10/25 00:05:37;;;;;;;14.13;5.43;;;;;;;;;;4964488;28;20039;-62
2021/10/25 00:08:04;;;;;;;13.45;5.03;;;;;;;;;;4960268;28;20066;-62
2021/10/25 00:10:30;;;;;;;11.63;5.05;;;;;;;;;;4967353;28;20045;-62
2021/10/25 00:12:58;;;;;;;14.60;5.22;;;;;;;;;;4946248;28;20035;-62
2021/10/25 00:15:26;;;;;;;12.10;4.97;;;;;;;;;;4965606;28;20353;-62
2021/10/25 00:17:52;;;;;;;12.25;5.18;;;;;;;;;;4944313;28;20130;-62
2021/10/25 00:20:19;;;;;;;14.13;5.00;;;;;;;;;;4966064;28;20056;-62
2021/10/25 00:22:46;;;;;;;10.25;5.03;;;;;;;;;;4949595;28;20050;-62
2021/10/25 00:25:13;;;;;;;11.23;5.15;;;;;;;;;;4967132;28;20128;-62
2021/10/25 00:27:39;;;;;;;9.10;4.57;;;;;;;;;;4962324;28;20031;-62
2021/10/25 00:30:06;;;;;;;9.40;4.28;;;;;;;;;;4967409;28;20042;-62
2021/10/25 00:32:34;;;;;;;10.40;4.72;;;;;;;;;;4958732;28;20047;-62
2021/10/25 00:35:02;;;;;;;10.93;4.63;;;;;;;;;;4950952;28;20043;-62
2021/10/25 00:37:29;;;;;;;10.80;4.53;;;;;;;;;;4945974;28;20042;-62
2021/10/25 00:39:55;;;;;;;9.02;4.25;;;;;;;;;;4948898;28;20043;-62
2021/10/25 00:42:22;;;;;;;12.38;5.07;;;;;;;;;;4944040;28;20150;-62
2021/10/25 00:44:49;;;;;;;12.98;4.50;;;;;;;;;;4948870;28;20050;-62
2021/10/25 00:47:15;;;;;;;13.77;4.45;;;;;;;;;;4948055;28;20078;-61
2021/10/25 00:49:45;;;;;;;11.75;4.72;;;;;;;;;;4959170;28;20046;-62
2021/10/25 00:52:12;;;;;;;8.38;3.85;;;;;;;;;;4964624;28;20047;-62
2021/10/25 00:54:39;;;;;;;12.10;4.05;;;;;;;;;;4959509;28;20053;-62
2021/10/25 00:57:05;;;;;;;13.05;3.92;;;;;;;;;;4984849;28;20047;-62
2021/10/25 00:59:32;;;;;;;9.05;4.22;;;;;;;;;;4953007;28;20023;-61
2021/10/25 01:01:58;;;;;;;9.90;4.18;;;;;;;;;;4945650;28;20110;-62
2021/10/25 01:04:25;;;;;;;8.13;4.30;;;;;;;;;;4942290;28;20122;-62
2021/10/25 01:06:53;;;;;;;9.25;3.70;;;;;;;;;;4958724;28;20046;-62
2021/10/25 01:09:20;;;;;;;10.73;4.15;;;;;;;;;;4978597;28;20121;-62
2021/10/25 01:11:48;;;;;;;8.80;4.20;;;;;;;;;;4974541;28;20035;-62
2021/10/25 01:14:14;;;;;;;8.98;4.28;;;;;;;;;;4949946;28;20038;-62
2021/10/25 01:16:41;;;;;;;10.82;4.15;;;;;;;;;;4966215;28;20039;-62
2021/10/25 01:19:08;;;;;;;7.85;3.92;;;;;;;;;;4965487;28;20189;-62
2021/10/25 01:21:36;;;;;;;10.30;4.15;;;;;;;;;;5002608;28;20122;-62
2021/10/25 01:24:02;;;;;;;8.52;4.07;;;;;;;;;;4981461;28;20046;-62
2021/10/25 01:26:29;;;;;;;10.25;3.95;;;;;;;;;;4984523;28;20070;-61
2021/10/25 01:28:55;;;;;;;10.80;4.35;;;;;;;;;;4985081;28;20093;-62
2021/10/25 01:31:22;;;;;;;12.43;4.18;;;;;;;;;;4964165;28;20105;-62
2021/10/25 01:33:50;;;;;;;12.10;4.10;;;;;;;;;;4985791;28;20038;-62
2021/10/25 01:36:16;;;;;;;9.13;4.30;;;;;;;;;;4962113;28;20054;-61
2021/10/25 01:38:44;;;;;;;8.80;4.13;;;;;;;;;;4964293;28;20043;-62
2021/10/25 01:41:11;;;;;;;12.82;4.38;;;;;;;;;;4977441;28;20042;-61
2021/10/25 01:43:38;;;;;;;11.15;4.50;;;;;;;;;;4985068;28;20046;-62
2021/10/25 01:46:06;;;;;;;8.82;3.85;;;;;;;;;;4971103;28;20082;-61
2021/10/25 01:48:33;;;;;;;12.55;4.32;;;;;;;;;;4965912;28;20039;-61
2021/10/25 01:51:00;;;;;;;10.48;4.03;;;;;;;;;;4976996;28;20046;-62
2021/10/25 01:53:26;;;;;;;7.85;3.55;;;;;;;;;;4965741;28;20035;-61
2021/10/25 01:56:00;;;;;;;14.48;4.00;;;;;;;;;;4962968;28;20042;-61
2021/10/25 01:58:27;;;;;;;9.48;4.22;;;;;;;;;;4962960;28;20039;-62
2021/10/25 02:00:54;;;;;;;9.70;4.28;;;;;;;;;;4966271;28;20038;-62
2021/10/25 02:03:20;;;;;;;9.93;4.22;;;;;;;;;;4985523;28;20038;-61
2021/10/25 02:05:47;;;;;;;10.55;4.85;;;;;;;;;;4979560;28;20173;-62
2021/10/25 02:08:13;;;;;;;8.95;3.53;;;;;;;;;;4983655;28;20047;-61
2021/10/25 02:10:40;;;;;;;11.73;3.60;;;;;;;;;;4980947;28;20043;-62
2021/10/25 02:13:15;;;;;;;9.68;4.05;;;;;;;;;;4944851;28;20043;-61
2021/10/25 02:15:42;;;;;;;8.50;3.95;;;;;;;;;;4961013;28;20035;-62
2021/10/25 02:18:09;;;;;;;9.63;3.67;;;;;;;;;;4979579;28;20045;-61
2021/10/25 02:20:36;;;;;;;10.75;3.58;;;;;;;;;;4983860;28;20054;-62
2021/10/25 02:23:02;;;;;;;10.40;4.30;;;;;;;;;;4998892;28;20042;-62
2021/10/25 02:25:30;;;;;;;11.45;4.35;;;;;;;;;;4984538;28;20097;-62
2021/10/25 02:27:56;;;;;;;9.00;4.10;;;;;;;;;;4998491;28;20061;-61
2021/10/25 02:30:25;;;;;;;10.18;4.20;;;;;;;;;;4985773;28;20272;-62
2021/10/25 02:32:53;;;;;;;9.57;4.25;;;;;;;;;;4982240;28;20053;-62
2021/10/25 02:35:20;;;;;;;9.70;4.15;;;;;;;;;;4987860;28;20046;-62
2021/10/25 02:37:46;;;;;;;9.75;4.25;;;;;;;;;;4975036;28;20048;-62
2021/10/25 02:40:13;;;;;;;8.95;3.80;;;;;;;;;;4985834;28;20058;-62
2021/10/25 02:42:40;;;;;;;12.50;4.07;;;;;;;;;;4986604;28;20030;-61
2021/10/25 02:45:14;;;;;;;11.13;4.10;;;;;;;;;;4988050;28;20046;-62
2021/10/25 02:47:41;;;;;;;8.63;3.60;;;;;;;;;;4964649;28;20045;-61
2021/10/25 02:50:08;;;;;;;9.20;4.20;;;;;;;;;;4968292;28;20054;-61
2021/10/25 02:52:35;;;;;;;8.55;4.07;;;;;;;;;;4965990;28;20393;-62
2021/10/25 02:55:02;;;;;;;13.57;4.07;;;;;;;;;;4969416;28;20125;-61
2021/10/25 02:57:28;;;;;;;9.65;4.03;;;;;;;;;;4965236;28;20034;-61
2021/10/25 02:59:55;;;;;;;10.95;4.60;;;;;;;;;;4967850;28;20063;-61
2021/10/25 03:02:21;;;;;;;10.10;4.25;;;;;;;;;;4969004;28;20039;-62
2021/10/25 03:04:49;;;;;;;12.48;4.50;;;;;;;;;;4964910;28;20051;-61
2021/10/25 03:07:16;;;;;;;8.95;3.78;;;;;;;;;;4968352;28;20041;-61
2021/10/25 03:09:42;;;;;;;6.25;3.30;;;;;;;;;;4977203;28;20057;-61
2021/10/25 03:12:09;;;;;;;8.65;3.78;;;;;;;;;;4966835;28;20134;-62
2021/10/25 03:14:36;;;;;;;11.75;3.75;;;;;;;;;;4987335;28;20042;-61
2021/10/25 03:17:02;;;;;;;8.45;3.78;;;;;;;;;;4986950;28;20034;-61
2021/10/25 03:19:29;;;;;;;11.30;4.35;;;;;;;;;;4973850;28;20027;-62
2021/10/25 03:21:56;;;;;;;11.50;3.88;;;;;;;;;;4966966;28;20042;-62
2021/10/25 03:24:23;;;;;;;8.23;3.10;;;;;;;;;;4972296;28;20182;-62
2021/10/25 03:26:50;;;;;;;11.88;3.92;;;;;;;;;;4986619;28;20041;-62
2021/10/25 03:29:17;;;;;;;16.08;3.88;;;;;;;;;;4978964;28;20039;-61
2021/10/25 03:31:43;;;;;;;7.97;3.40;;;;;;;;;;4986707;28;20039;-62
2021/10/25 03:34:10;;;;;;;11.70;3.60;;;;;;;;;;4966103;28;20046;-62
2021/10/25 03:36:38;;;;;;;8.60;3.40;;;;;;;;;;4968865;28;20050;-61
2021/10/25 03:39:07;;;;;;;11.07;3.90;;;;;;;;;;4965649;28;20106;-62
2021/10/25 03:41:36;;;;;;;;;;;;;;;;;;4966691;28;20055;-62
2021/10/25 03:44:07;;;;;;;11.57;3.45;;;;;;;;;;4966005;28;19922;-62
2021/10/25 03:46:39;;;;;;;10.77;3.67;;;;;;;;;;4962959;28;20049;-61
2021/10/25 03:49:10;;;;;;;8.68;3.42;;;;;;;;;;4969406;28;20047;-62
2021/10/25 03:51:38;;;;;;;7.35;3.63;;;;;;;;;;4976659;28;20127;-62
2021/10/25 03:54:19;;;;;;;11.23;3.50;;;;;;;;;;5004736;28;20042;-61
2021/10/25 03:57:08;;;;;;;7.43;3.22;;;;;;;;;;4979209;28;20035;-62
2021/10/25 03:59:43;;;;;;;7.78;3.25;;;;;;;;;;4985767;28;20038;-62
2021/10/25 04:02:32;;;;;;;8.13;2.90;;;;;;;;;;4980230;28;20154;-62
2021/10/25 04:27:23;;;;;;;10.05;3.97;;;;;;;;;;4953571;28;20050;-62
2021/10/25 04:29:54;;;;;;;9.23;3.38;;;;;;;;;;4967670;28;20039;-62
2021/10/25 04:32:21;;;;;;;14.63;3.65;;;;;;;;;;4981789;28;20053;-62
2021/10/25 04:34:48;;;;;;;8.27;3.53;;;;;;;;;;4985574;28;20054;-62
2021/10/25 04:37:14;;;;;;;7.95;3.50;;;;;;;;;;4989155;28;20046;-62
2021/10/25 04:39:41;;;;;;;9.82;3.75;;;;;;;;;;4985174;28;20053;-62
2021/10/25 04:42:09;;;;;;;6.57;3.53;;;;;;;;;;4982323;28;20103;-62
2021/10/25 04:44:35;;;;;;;6.18;3.03;;;;;;;;;;4986524;28;20057;-61
2021/10/25 04:47:02;;;;;;;9.30;3.55;;;;;;;;;;4966966;28;20082;-61
2021/10/25 04:49:29;;;;;;;7.93;3.50;;;;;;;;;;4947396;28;20063;-62
2021/10/25 04:51:55;;;;;;;13.95;3.95;;;;;;;;;;4982401;28;20078;-62
2021/10/25 04:54:22;;;;;;;10.20;3.60;;;;;;;;;;4982962;28;20113;-61
2021/10/25 04:56:48;;;;;;;11.45;3.85;;;;;;;;;;4966578;28;20138;-61
2021/10/25 04:59:17;;;;;;;9.25;3.72;;;;;;;;;;4998497;28;20116;-62
2021/10/25 05:01:44;;;;;;;12.40;4.57;;;;;;;;;;5004629;28;20063;-62
2021/10/25 05:04:10;;;;;;;7.60;3.63;;;;;;;;;;4966747;28;20136;-62
2021/10/25 05:06:37;;;;;;;8.48;3.67;;;;;;;;;;4967237;28;20050;-62
2021/10/25 05:09:03;;;;;;;12.25;3.60;;;;;;;;;;4981957;28;20046;-62
2021/10/25 05:11:30;;;;;;;12.38;3.50;;;;;;;;;;4963646;28;20038;-62
2021/10/25 05:13:57;;;;;;;13.20;3.17;;;;;;;;;;4980977;28;20035;-62
2021/10/25 05:16:25;;;;;;;7.63;3.38;;;;;;;;;;4961251;28;20039;-62
2021/10/25 05:18:51;;;;;;;6.97;3.08;;;;;;;;;;4962747;28;20034;-62
2021/10/25 05:21:19;;;;;;;7.18;2.80;;;;;;;;;;4965502;28;20050;-62
2021/10/25 05:23:45;;;;;;;6.82;3.40;;;;;;;;;;4957279;28;20062;-63
2021/10/25 05:26:12;;;;;;;8.75;3.67;;;;;;;;;;4964281;28;20042;-62
2021/10/25 05:28:40;;;;;;;7.78;3.75;;;;;;;;;;4977954;28;20055;-62
2021/10/25 05:31:06;;;;;;;11.13;3.70;;;;;;;;;;4979834;28;20042;-62
2021/10/25 05:33:34;;;;;;;8.40;3.80;;;;;;;;;;4960106;28;20055;-62
2021/10/25 05:36:03;;;;;;;9.73;4.00;;;;;;;;;;4962337;28;20117;-62
2021/10/25 05:38:30;;;;;;;8.90;3.35;;;;;;;;;;4963569;28;20054;-62
2021/10/25 05:40:56;;;;;;;8.57;3.33;;;;;;;;;;4959865;28;20128;-61
2021/10/25 05:43:23;;;;;;;8.45;3.70;;;;;;;;;;4981019;28;20058;-62
2021/10/25 05:45:49;;;;;;;9.43;3.63;;;;;;;;;;4962693;28;20054;-62
2021/10/25 05:48:16;;;;;;;13.70;3.53;;;;;;;;;;4980950;28;20063;-62
2021/10/25 05:50:45;;;;;;;12.68;3.90;;;;;;;;;;4963428;28;20054;-62
2021/10/25 05:53:12;;;;;;;8.68;3.63;;;;;;;;;;4979883;28;20058;-62
2021/10/25 05:55:41;;;;;;;12.00;4.28;;;;;;;;;;4977888;28;20093;-62
2021/10/25 05:58:12;;;;;;;12.50;5.15;;;;;;;;;;4967143;28;20050;-62
2021/10/25 06:00:41;;;;;;;13.02;4.30;;;;;;;;;;4978800;28;20056;-62
2021/10/25 06:03:07;;;;;;;14.90;4.32;;;;;;;;;;4966015;28;20043;-62
2021/10/25 06:05:34;;;;;;;8.93;3.97;;;;;;;;;;4960524;28;20050;-62
2021/10/25 06:08:02;;;;;;;10.45;3.95;;;;;;;;;;4947277;28;20121;-61
2021/10/25 06:10:32;;;;;;;8.87;3.87;;;;;;;;;;4946761;28;20046;-61
2021/10/25 06:13:02;;;;;;;11.43;3.90;;;;;;;;;;4932192;29;20282;-61
2021/10/25 06:15:35;;;;;;;14.45;3.78;;;;;;;;;;4929825;28;20072;-62
2021/10/25 06:18:04;;;;;;;8.55;3.38;;;;;;;;;;4947489;28;20057;-61
2021/10/25 06:20:31;;;;;;;;;;;;;;;;;;4947236;28;20376;-62
2021/10/25 06:22:58;;;;;;;6.40;3.03;;;;;;;;;;4957099;28;19992;-61
2021/10/25 06:25:26;;;;;;;10.10;3.17;;;;;;;;;;4931643;29;20047;-62
2021/10/25 06:27:52;;;;;;;9.07;3.42;;;;;;;;;;4964830;28;20042;-62
2021/10/25 06:30:21;;;;;;;7.82;3.10;;;;;;;;;;4970669;28;20038;-62
2021/10/25 06:32:48;;;;;;;8.45;3.38;;;;;;;;;;4950109;28;20043;-62
2021/10/25 06:35:17;;;;;;;9.45;3.55;;;;;;;;;;4965264;28;20129;-62
2021/10/25 06:37:56;;;;;;;9.18;3.35;;;;;;;;;;4945609;28;20055;-61
2021/10/25 06:40:27;;;;;;;8.43;3.42;;;;;;;;;;4948341;28;20047;-61
2021/10/25 06:43:10;;;;;;;7.43;2.90;;;;;;;;;;4959074;28;20074;-61
2021/10/25 06:45:38;;;;;;;7.13;3.13;;;;;;;;;;4956797;28;20054;-62
2021/10/25 06:48:05;;;;;;;7.45;3.28;;;;;;;;;;4978490;28;20034;-61
2021/10/25 06:50:39;;;;;;;8.00;3.53;;;;;;;;;;4967729;28;20031;-62
2021/10/25 06:53:06;;;;;;;8.38;3.40;;;;;;;;;;4955831;28;20043;-61
2021/10/25 06:55:36;;;;;;;9.88;3.25;;;;;;;;;;4965920;28;20046;-61
2021/10/25 06:58:03;;;;;;;8.43;3.63;;;;;;;;;;4951140;28;20039;-61
2021/10/25 07:00:31;;;;;;;7.57;3.50;;;;;;;;;;4946710;28;20098;-62
2021/10/25 07:02:58;;;;;;;8.77;3.50;;;;;;;;;;4949898;28;20027;-62
2021/10/25 07:05:25;;;;;;;8.80;3.33;;;;;;;;;;4966505;28;20062;-61
2021/10/25 07:07:51;;;;;;;14.65;3.53;;;;;;;;;;4976325;28;20093;-62
2021/10/25 07:10:18;;;;;;;12.18;3.60;;;;;;;;;;4965888;28;20094;-62
2021/10/25 07:12:45;;;;;;;8.00;3.65;;;;;;;;;;4953785;28;20052;-62
2021/10/25 07:15:13;;;;;;;9.52;3.28;;;;;;;;;;5003401;28;20042;-62
2021/10/25 07:17:48;;;;;;;7.95;3.55;;;;;;;;;;4982704;28;20038;-62
2021/10/25 07:20:34;;;;;;;9.07;3.47;;;;;;;;;;4984225;28;20057;-61
2021/10/25 08:02:05;;;;;;;11.95;4.47;;;;;;;;;;4967208;28;20054;-62
2021/10/25 08:07:26;;;;;;;9.13;3.92;;;;;;;;;;4954315;28;20038;-62
2021/10/25 08:09:54;;;;;;;8.23;3.50;;;;;;;;;;4963504;28;20035;-62
2021/10/25 08:12:24;;;;;;;10.38;4.28;;;;;;;;;;4971547;28;20055;-62
2021/10/25 08:14:56;;;;;;;9.77;5.03;;;;;;;;;;4945802;28;20050;-62
2021/10/25 08:17:26;;;;;;;13.15;5.32;;;;;;;;;;4927524;29;20046;-62
2021/10/25 08:19:53;;;;;;;12.30;4.93;;;;;;;;;;4945321;28;20054;-62
2021/10/25 08:22:21;;;;;;;12.10;5.60;;;;;;;;;;4948976;28;20042;-62
2021/10/25 08:24:48;;;;;;;13.18;4.82;;;;;;;;;;4963915;28;20043;-62
2021/10/25 08:27:15;;;;;;;11.88;5.60;;;;;;;;;;4944717;28;20059;-62
2021/10/25 08:29:45;;;;;;;12.57;5.13;;;;;;;;;;4944513;28;20045;-61
2021/10/25 08:32:22;;;;;;;9.77;5.10;;;;;;;;;;4943819;28;20042;-60
2021/10/25 08:35:01;;;;;;;12.57;5.38;;;;;;;;;;4944098;28;20054;-61
2021/10/25 08:40:13;;;;;;;10.10;5.13;;;;;;;;;;4948440;28;20047;-61
2021/10/25 08:42:41;;;;;;;12.20;4.93;;;;;;;;;;4959043;28;20166;-61
2021/10/25 08:45:17;;;;;;;15.35;5.55;;;;;;;;;;4966084;28;20030;-61
2021/10/25 08:47:46;;;;;;;10.63;4.97;;;;;;;;;;4966792;28;20062;-61
2021/10/25 08:50:13;;;;;;;14.05;5.70;;;;;;;;;;4981180;28;20047;-61
2021/10/25 08:52:41;;;;;;;10.93;5.32;;;;;;;;;;4951271;28;20039;-61
2021/10/25 08:55:12;;;;;;;10.80;4.80;;;;;;;;;;4964681;28;20039;-61
2021/10/25 08:57:39;;;;;;;10.60;4.85;;;;;;;;;;4954624;28;20445;-61
2021/10/25 09:00:07;;;;;;;10.70;5.25;;;;;;;;;;4967463;28;20058;-63
2021/10/25 09:02:35;;;;;;;15.05;5.97;;;;;;;;;;4953592;28;20071;-64
2021/10/25 09:05:07;;;;;;;15.73;6.72;;;;;;;;;;4944465;28;20043;-63
2021/10/25 09:07:47;;;;;;;10.43;5.43;;;;;;;;;;4961492;28;20041;-63
2021/10/25 09:10:21;;;;;;;13.05;5.50;;;;;;;;;;4985074;28;20057;-63
2021/10/25 09:12:52;;;;;;;15.57;5.30;;;;;;;;;;4973088;28;20098;-63
2021/10/25 09:15:19;;;;;;;13.38;5.38;;;;;;;;;;4966275;28;20084;-63
2021/10/25 09:17:47;;;;;;;13.02;5.57;;;;;;;;;;4964871;28;20050;-63
2021/10/25 09:20:17;;;;;;;11.57;5.65;;;;;;;;;;4985129;28;20154;-63
2021/10/25 09:22:43;;;;;;;12.32;5.80;;;;;;;;;;4979889;28;20054;-64
2021/10/25 09:25:11;;;;;;;11.18;6.10;;;;;;;;;;4978385;28;20030;-63
2021/10/25 09:27:41;;;;;;;16.73;7.15;;;;;;;;;;4981929;28;20112;-64
2021/10/25 09:30:09;;;;;;;9.77;5.25;;;;;;;;;;4986325;28;20046;-66
2021/10/25 09:32:36;;;;;;;12.18;5.10;;;;;;;;;;4986008;28;20127;-64
2021/10/25 09:35:05;;;;;;;11.02;4.50;;;;;;;;;;4979293;28;20054;-62
2021/10/25 09:37:37;;;;;;;13.05;4.35;;;;;;;;;;4972357;28;20054;-61
2021/10/25 09:40:08;;;;;;;13.85;4.50;;;;;;;;;;4980781;28;20030;-62
2021/10/25 09:51:05;;;;;;;11.68;4.60;;;;;;;;;;4958085;28;20130;-61
2021/10/25 09:53:32;;;;;;;11.50;4.90;;;;;;;;;;4968079;28;20055;-61
2021/10/25 09:55:59;;;;;;;17.23;5.30;;;;;;;;;;4982916;28;20051;-61
2021/10/25 09:58:33;;;;;;;11.38;5.28;;;;;;;;;;4967903;28;20046;-61
2021/10/25 10:01:03;;;;;;;13.23;4.72;;;;;;;;;;4983110;28;20062;-61
2021/10/25 10:03:30;;;;;;;9.57;4.88;;;;;;;;;;4988041;28;20053;-61
2021/10/25 10:05:59;;;;;;;12.70;5.03;;;;;;;;;;4983462;28;20199;-61
2021/10/25 10:08:27;;;;;;;12.52;4.50;;;;;;;;;;4987131;28;20042;-61
2021/10/25 10:10:53;;;;;;;10.30;5.45;;;;;;;;;;4985652;28;20042;-61
2021/10/25 10:13:22;;;;;;;11.40;4.80;;;;;;;;;;4966659;28;20118;-62
2021/10/25 10:15:54;;;;;;;13.18;4.82;;;;;;;;;;4966394;28;20046;-61
2021/10/25 10:18:22;;;;;;;9.55;4.75;;;;;;;;;;4988387;28;20046;-61
2021/10/25 10:20:54;;;;;;;11.40;4.40;;;;;;;;;;4965376;28;20074;-61
2021/10/25 10:23:21;;;;;;;9.60;4.57;;;;;;;;;;4979377;28;20108;-61
2021/10/25 10:25:50;;;;;;;9.80;4.88;;;;;;;;;;4978315;28;20070;-61
2021/10/25 10:28:17;;;;;;;12.32;5.15;;;;;;;;;;4983326;28;20045;-62
2021/10/25 10:30:56;;;;;;;17.00;5.30;;;;;;;;;;4985676;28;20090;-61
2021/10/25 10:33:36;;;;;;;13.13;4.70;;;;;;;;;;5003616;28;20053;-62
2021/10/25 10:36:12;;;;;;;10.85;4.80;;;;;;;;;;4975928;28;20039;-61
2021/10/25 10:38:43;;;;;;;8.45;3.97;;;;;;;;;;4986793;28;20035;-61
2021/10/25 10:41:10;;;;;;;13.40;3.88;;;;;;;;;;4965539;28;20038;-62
2021/10/25 10:43:36;;;;;;;10.60;4.72;;;;;;;;;;4984670;28;20165;-62
2021/10/25 10:46:07;;;;;;;11.52;4.40;;;;;;;;;;4982721;28;20046;-61
2021/10/25 10:48:37;;;;;;;11.48;4.32;;;;;;;;;;4967149;28;20043;-62
2021/10/25 10:51:06;;;;;;;9.93;4.13;;;;;;;;;;4964265;28;20027;-61
2021/10/25 10:53:35;;;;;;;12.00;4.93;;;;;;;;;;4968547;28;20054;-62
2021/10/25 10:56:05;;;;;;;8.55;4.07;;;;;;;;;;4985733;28;20038;-61
2021/10/25 10:58:45;;;;;;;6.70;3.63;;;;;;;;;;4975622;28;20062;-63
2021/10/25 11:01:14;;;;;;;9.10;3.67;;;;;;;;;;4987621;28;20038;-62
2021/10/25 11:03:40;;;;;;;;;;;;;;;;;;4967264;28;20086;-62
2021/10/25 11:06:10;;;;;;;12.75;4.63;;;;;;;;;;4980158;28;19932;-62
2021/10/25 11:08:38;;;;;;;14.52;5.45;;;;;;;;;;4945307;28;20054;-62
2021/10/25 11:11:06;;;;;;;11.02;5.22;;;;;;;;;;4946729;28;20043;-62
2021/10/25 11:13:36;;;;;;;14.85;4.95;;;;;;;;;;4962498;28;20049;-62
2021/10/25 11:16:07;;;;;;;10.82;4.90;;;;;;;;;;4947638;28;20055;-62
2021/10/25 11:18:37;;;;;;;9.82;4.63;;;;;;;;;;4944920;28;20057;-62
2021/10/25 11:21:07;;;;;;;11.32;4.20;;;;;;;;;;4947866;28;20043;-62
2021/10/25 11:23:43;;;;;;;8.90;3.65;;;;;;;;;;4945034;28;20059;-62
2021/10/25 11:26:16;;;;;;;10.75;3.90;;;;;;;;;;4947887;28;20051;-61
2021/10/25 11:28:58;;;;;;;15.73;4.57;;;;;;;;;;4952063;28;20054;-62
2021/10/25 11:31:26;;;;;;;8.48;3.83;;;;;;;;;;4963478;28;20027;-62
2021/10/25 11:33:55;;;;;;;9.38;3.95;;;;;;;;;;4952874;28;20031;-62
2021/10/25 11:36:27;;;;;;;15.20;4.82;;;;;;;;;;4948373;28;20112;-62
2021/10/25 11:38:55;;;;;;;9.90;4.50;;;;;;;;;;4943854;28;20079;-62
2021/10/25 11:41:24;;;;;;;11.13;4.53;;;;;;;;;;4964008;28;20053;-62
2021/10/25 11:43:54;;;;;;;13.77;3.88;;;;;;;;;;4960143;28;20141;-62
2021/10/25 11:46:23;;;;;;;11.93;4.28;;;;;;;;;;4948530;28;20117;-62
2021/10/25 11:48:52;;;;;;;8.55;4.07;;;;;;;;;;4962359;28;20050;-62
2021/10/25 11:51:24;;;;;;;8.90;3.35;;;;;;;;;;4948189;28;20054;-62
2021/10/25 11:53:56;;;;;;;11.32;4.15;;;;;;;;;;4948539;28;20050;-62
2021/10/25 11:56:29;;;;;;;9.85;3.90;;;;;;;;;;4968359;28;20050;-62
2021/10/25 11:58:58;;;;;;;14.75;4.70;;;;;;;;;;4964152;28;20043;-62
2021/10/25 12:01:28;;;;;;;9.13;4.18;;;;;;;;;;4983781;28;20128;-62
2021/10/25 12:03:56;;;;;;;12.95;4.15;;;;;;;;;;4962014;28;20034;-62
2021/10/25 12:06:27;;;;;;;13.00;4.30;;;;;;;;;;4955503;28;20050;-62
2021/10/25 12:08:58;;;;;;;9.25;3.75;;;;;;;;;;4984529;28;20038;-62
2021/10/25 12:11:36;;;;;;;13.38;4.28;;;;;;;;;;4951641;28;20110;-62
2021/10/25 12:14:05;;;;;;;10.18;4.55;;;;;;;;;;4967712;28;20047;-62
2021/10/25 12:16:33;;;;;;;13.48;4.55;;;;;;;;;;5000716;28;20049;-63
2021/10/25 12:19:02;;;;;;;10.43;5.05;;;;;;;;;;4986244;28;20034;-62
2021/10/25 12:21:35;;;;;;;12.73;4.60;;;;;;;;;;4965655;28;20046;-62
2021/10/25 12:24:04;;;;;;;10.65;4.20;;;;;;;;;;4985399;28;20050;-62
2021/10/25 12:26:31;;;;;;;13.20;4.60;;;;;;;;;;4984116;28;20039;-62
2021/10/25 12:28:59;;;;;;;9.85;4.43;;;;;;;;;;4985684;28;20037;-61
2021/10/25 12:31:27;;;;;;;11.45;4.47;;;;;;;;;;4984471;28;20089;-62
2021/10/25 12:34:03;;;;;;;9.85;4.18;;;;;;;;;;4986364;28;20050;-62
2021/10/25 12:36:36;;;;;;;11.40;4.28;;;;;;;;;;4986471;28;20030;-62
2021/10/25 12:39:07;;;;;;;10.43;4.03;;;;;;;;;;4983189;28;20038;-62
2021/10/25 12:41:44;;;;;;;10.43;4.32;;;;;;;;;;4963651;28;20052;-62
2021/10/25 12:44:13;;;;;;;14.27;4.95;;;;;;;;;;4966276;28;20042;-62
2021/10/25 12:46:41;;;;;;;13.65;4.68;;;;;;;;;;4979527;28;20060;-62
2021/10/25 12:49:10;;;;;;;11.93;4.55;;;;;;;;;;4966747;28;20039;-62
2021/10/25 12:51:39;;;;;;;9.95;4.32;;;;;;;;;;4963635;28;20112;-62
2021/10/25 12:54:10;;;;;;;14.55;4.47;;;;;;;;;;4966537;28;20194;-62
2021/10/25 12:56:37;;;;;;;9.27;4.70;;;;;;;;;;4961466;28;20128;-63
2021/10/25 12:59:05;;;;;;;13.95;4.75;;;;;;;;;;4966829;28;20043;-63
2021/10/25 13:01:33;;;;;;;10.48;5.38;;;;;;;;;;4965903;28;20054;-62
2021/10/25 13:04:02;;;;;;;16.73;5.18;;;;;;;;;;4986457;28;20054;-63
2021/10/25 13:06:31;;;;;;;11.98;5.28;;;;;;;;;;4990651;28;20090;-62
2021/10/25 13:09:00;;;;;;;13.52;4.95;;;;;;;;;;4946957;28;20031;-62
2021/10/25 13:11:27;;;;;;;;;;;;;;;;;;4940142;28;20047;-63
2021/10/25 13:13:55;;;;;;;10.68;5.00;;;;;;;;;;4944706;28;19937;-62
2021/10/25 13:16:29;;;;;;;11.27;5.33;;;;;;;;;;4946842;28;20054;-62
2021/10/25 13:18:58;;;;;;;15.07;5.18;;;;;;;;;;4943912;28;20273;-62
2021/10/25 13:21:26;;;;;;;10.75;5.32;;;;;;;;;;4963142;28;20047;-62
2021/10/25 13:23:55;;;;;;;12.38;5.03;;;;;;;;;;4958729;28;20050;-62
2021/10/25 13:26:26;;;;;;;12.25;5.45;;;;;;;;;;4981375;28;20133;-62
2021/10/25 13:28:53;;;;;;;13.27;5.30;;;;;;;;;;4948843;28;20054;-62
2021/10/25 13:31:20;;;;;;;17.73;5.53;;;;;;;;;;4945148;28;20039;-62
2021/10/25 13:33:48;;;;;;;10.95;5.40;;;;;;;;;;4947963;28;20046;-62
2021/10/25 13:36:16;;;;;;;14.10;5.03;;;;;;;;;;4983122;28;20050;-62
2021/10/25 13:38:46;;;;;;;14.00;5.15;;;;;;;;;;4952518;28;20043;-62
2021/10/25 13:41:13;;;;;;;9.63;4.53;;;;;;;;;;4946764;28;20125;-62
2021/10/25 13:43:41;;;;;;;11.60;4.82;;;;;;;;;;4960936;28;20058;-62
2021/10/25 13:46:10;;;;;;;11.52;4.55;;;;;;;;;;4945926;28;20047;-62
2021/10/25 13:48:37;;;;;;;10.50;4.82;;;;;;;;;;4948318;28;20049;-62
2021/10/25 13:51:06;;;;;;;11.32;5.18;;;;;;;;;;4966616;28;20169;-62
2021/10/25 13:53:34;;;;;;;11.88;5.35;;;;;;;;;;4961060;28;20038;-62
2021/10/25 13:56:02;;;;;;;13.70;5.72;;;;;;;;;;4966366;28;20047;-62
2021/10/25 13:58:29;;;;;;;14.85;5.57;;;;;;;;;;4963645;28;20055;-63
2021/10/25 14:00:57;;;;;;;10.88;4.93;;;;;;;;;;4966647;28;20114;-62
2021/10/25 14:03:25;;;;;;;13.90;5.43;;;;;;;;;;4962273;28;20034;-62
2021/10/25 14:05:53;;;;;;;15.65;5.45;;;;;;;;;;4928274;28;20036;-63
2021/10/25 14:08:20;;;;;;;14.60;5.45;;;;;;;;;;4962150;28;20069;-62
2021/10/25 14:10:51;;;;;;;12.23;5.00;;;;;;;;;;4958131;28;20042;-63
2021/10/25 14:13:25;;;;;;;11.90;5.32;;;;;;;;;;4927778;29;20043;-63
2021/10/25 14:16:08;;;;;;;11.50;4.78;;;;;;;;;;4957312;28;20043;-62
2021/10/25 14:18:39;;;;;;;11.45;4.47;;;;;;;;;;4980894;28;20125;-62
2021/10/25 14:21:08;;;;;;;13.50;5.57;;;;;;;;;;4977498;28;20163;-62
2021/10/25 14:23:36;;;;;;;13.63;4.65;;;;;;;;;;4953170;28;20051;-62
2021/10/25 14:26:08;;;;;;;13.35;5.47;;;;;;;;;;4958835;28;20071;-63
2021/10/25 14:28:35;;;;;;;14.05;5.20;;;;;;;;;;4985535;28;20035;-63
2021/10/25 14:31:05;;;;;;;13.40;4.57;;;;;;;;;;4951484;28;20063;-63
2021/10/25 14:33:35;;;;;;;11.50;5.00;;;;;;;;;;4966288;28;20043;-63
2021/10/25 14:36:04;;;;;;;9.82;4.78;;;;;;;;;;4957193;28;20054;-62
2021/10/25 14:38:40;;;;;;;14.23;5.63;;;;;;;;;;4968647;28;20043;-62
2021/10/25 14:41:17;;;;;;;11.00;4.57;;;;;;;;;;4954504;28;20056;-63
2021/10/25 14:43:46;;;;;;;10.48;4.75;;;;;;;;;;4966641;28;20051;-63
2021/10/25 14:46:31;;;;;;;10.50;4.63;;;;;;;;;;4963868;28;20102;-63
2021/10/25 14:49:13;;;;;;;11.75;4.70;;;;;;;;;;4979473;28;20041;-62
2021/10/25 14:54:33;;;;;;;11.07;4.60;;;;;;;;;;4945071;28;20126;-63
2021/10/25 14:57:02;;;;;;;7.80;4.22;;;;;;;;;;4944596;28;20031;-62
2021/10/25 14:59:28;;;;;;;14.60;5.05;;;;;;;;;;4949608;28;20129;-62
2021/10/25 15:01:57;;;;;;;16.98;4.40;;;;;;;;;;4945990;28;20046;-62
2021/10/25 15:04:24;;;;;;;9.02;4.47;;;;;;;;;;4947778;28;20063;-63
2021/10/25 15:06:56;;;;;;;11.77;4.50;;;;;;;;;;4960560;28;20043;-62
2021/10/25 15:09:26;;;;;;;12.18;4.55;;;;;;;;;;4947991;28;20046;-62
2021/10/25 15:11:53;;;;;;;9.18;3.95;;;;;;;;;;4951099;28;20065;-62
2021/10/25 15:14:21;;;;;;;10.98;4.85;;;;;;;;;;4967983;28;20082;-62
2021/10/25 15:16:48;;;;;;;10.30;4.57;;;;;;;;;;4958978;28;20047;-63
2021/10/25 15:19:15;;;;;;;11.40;4.40;;;;;;;;;;4947752;28;20062;-62
2021/10/25 15:21:43;;;;;;;12.55;4.18;;;;;;;;;;4944922;28;20054;-63
2021/10/25 15:24:10;;;;;;;;;;;;;;;;;;4948950;28;20069;-62
2021/10/25 15:26:45;;;;;;;11.90;4.20;;;;;;;;;;4962384;28;19926;-62
2021/10/25 15:29:12;;;;;;;12.57;4.82;;;;;;;;;;4965052;28;20043;-63
2021/10/25 15:31:39;;;;;;;11.40;4.82;;;;;;;;;;4949161;28;20131;-63
2021/10/25 15:34:06;;;;;;;8.55;4.45;;;;;;;;;;4962360;28;20043;-63
2021/10/25 15:36:34;;;;;;;13.30;4.75;;;;;;;;;;4967230;28;20055;-62
2021/10/25 15:39:02;;;;;;;10.75;4.63;;;;;;;;;;4958162;28;20058;-63
2021/10/25 15:41:29;;;;;;;10.68;4.28;;;;;;;;;;4967111;28;20035;-63
2021/10/25 15:44:02;;;;;;;13.20;4.47;;;;;;;;;;4967443;28;20055;-63
2021/10/25 15:46:29;;;;;;;17.42;5.35;;;;;;;;;;4962073;28;20055;-62
2021/10/25 15:48:58;;;;;;;12.07;5.20;;;;;;;;;;4932101;28;20050;-63
2021/10/25 15:51:27;;;;;;;14.00;4.90;;;;;;;;;;4927068;29;20044;-63
2021/10/25 15:53:54;;;;;;;9.63;4.63;;;;;;;;;;4946111;28;20042;-62
2021/10/25 15:56:21;;;;;;;10.73;4.63;;;;;;;;;;4967015;28;20178;-62
2021/10/25 15:58:48;;;;;;;9.93;4.22;;;;;;;;;;4963702;28;20042;-62
2021/10/25 16:01:18;;;;;;;8.93;4.57;;;;;;;;;;4982623;28;20031;-63
2021/10/25 16:03:45;;;;;;;9.85;3.95;;;;;;;;;;4961770;28;20125;-63